createdAt,value
2018-02-20T00:00:12.771Z,31.42
2018-02-20T00:02:40.374Z,32.70
2018-02-20T00:05:07.964Z,28.90
2018-02-20T00:07:35.508Z,31.27
2018-02-20T00:10:03.064Z,29.95
2018-02-20T00:12:30.702Z,32.25
2018-02-20T00:14:58.270Z,30.05
2018-02-20T00:17:25.846Z,30.48
2018-02-20T00:19:53.421Z,32.08
2018-02-20T00:22:20.984Z,31.08
2018-02-20T00:24:48.545Z,29.25
2018-02-20T00:27:16.110Z,30.75
2018-02-20T00:29:43.768Z,27.37
2018-02-20T00:32:12.115Z,31.62
2018-02-20T00:34:39.641Z,30.40
2018-02-20T00:37:07.209Z,29.60
2018-02-20T00:39:34.754Z,28.12
2018-02-20T00:42:02.322Z,29.63
2018-02-20T00:44:29.860Z,29.65
2018-02-20T00:46:57.434Z,29.42
2018-02-20T00:49:24.990Z,31.67
2018-02-20T00:51:52.540Z,30.50
2018-02-20T00:54:20.891Z,31.12
2018-02-20T00:56:48.425Z,31.20
2018-02-20T00:59:15.957Z,30.85
2018-02-20T01:01:43.558Z,30.15
2018-02-20T01:04:11.100Z,29.90
2018-02-20T01:06:38.627Z,30.00
2018-02-20T01:09:06.155Z,33.10
2018-02-20T01:11:33.716Z,31.20
2018-02-20T01:14:01.264Z,31.98
2018-02-20T01:16:28.841Z,33.58
2018-02-20T01:18:56.427Z,30.92
2018-02-20T01:21:24.089Z,29.25
2018-02-20T01:23:51.786Z,34.67
2018-02-20T01:26:19.445Z,31.75
2018-02-20T01:28:47.005Z,30.73
2018-02-20T01:31:14.567Z,32.50
2018-02-20T01:33:42.254Z,30.00
2018-02-20T01:36:10.661Z,30.50
2018-02-20T01:38:38.262Z,30.00
2018-02-20T01:41:05.821Z,32.42
2018-02-20T01:43:33.344Z,30.10
2018-02-20T01:46:00.903Z,30.52
2018-02-20T01:48:29.181Z,31.58
2018-02-20T01:51:08.347Z,26.60
2018-02-20T01:53:35.870Z,26.60
2018-02-20T01:56:04.217Z,26.23
2018-02-20T01:58:31.776Z,28.00
2018-02-20T02:00:59.335Z,29.20
2018-02-20T02:03:26.922Z,28.08
2018-02-20T02:05:54.597Z,30.45
2018-02-20T02:08:22.924Z,25.50
2018-02-20T02:10:50.509Z,27.05
2018-02-20T02:13:18.406Z,28.20
2018-02-20T02:15:46.001Z,29.30
2018-02-20T02:18:13.835Z,28.17
2018-02-20T02:20:42.167Z,29.48
2018-02-20T02:23:09.726Z,28.48
2018-02-20T02:25:37.295Z,27.83
2018-02-20T02:28:05.634Z,26.90
2018-02-20T02:30:33.234Z,29.75
2018-02-20T02:33:01.584Z,31.75
2018-02-20T02:35:29.153Z,27.15
2018-02-20T02:37:56.734Z,28.90
2018-02-20T02:40:24.319Z,30.17
2018-02-20T02:42:52.680Z,31.60
2018-02-20T02:45:21.017Z,27.20
2018-02-20T02:47:48.623Z,28.80
2018-02-20T02:50:16.215Z,28.38
2018-02-20T02:52:43.789Z,27.13
2018-02-20T02:55:11.401Z,25.10
2018-02-20T02:57:39.717Z,27.35
2018-02-20T03:00:07.294Z,25.17
2018-02-20T03:02:34.896Z,28.08
2018-02-20T03:05:03.258Z,26.33
2018-02-20T03:07:30.836Z,28.23
2018-02-20T03:09:59.165Z,28.85
2018-02-20T03:12:26.749Z,27.05
2018-02-20T03:14:54.337Z,28.23
2018-02-20T03:17:21.897Z,26.95
2018-02-20T03:19:49.588Z,28.20
2018-02-20T03:22:17.209Z,27.73
2018-02-20T03:24:44.776Z,26.02
2018-02-20T03:27:12.312Z,28.90
2018-02-20T03:29:39.861Z,29.02
2018-02-20T03:32:07.462Z,29.10
2018-02-20T03:34:35.805Z,30.85
2018-02-20T03:37:03.380Z,28.42
2018-02-20T03:39:31.004Z,27.42
2018-02-20T03:41:58.622Z,26.65
2018-02-20T03:44:26.942Z,27.17
2018-02-20T03:46:54.619Z,30.55
2018-02-20T03:49:22.213Z,27.77
2018-02-20T03:51:49.774Z,29.30
2018-02-20T03:54:17.982Z,28.83
2018-02-20T03:56:45.579Z,29.95
2018-02-20T03:59:13.166Z,30.42
2018-02-20T04:01:40.726Z,29.23
2018-02-20T04:04:08.361Z,30.92
2018-02-20T04:06:35.934Z,30.92
2018-02-20T04:09:03.540Z,26.45
2018-02-20T04:11:31.073Z,28.77
2018-02-20T04:13:58.690Z,24.40
2018-02-20T04:16:26.232Z,30.52
2018-02-20T04:18:53.772Z,28.27
2018-02-20T04:21:22.111Z,28.85
2018-02-20T04:23:49.658Z,26.55
2018-02-20T04:26:17.229Z,27.15
2018-02-20T04:28:44.814Z,27.70
2018-02-20T04:31:13.161Z,30.05
2018-02-20T04:33:40.757Z,32.28
2018-02-20T04:36:09.081Z,28.50
2018-02-20T04:38:36.630Z,27.35
2018-02-20T04:41:04.199Z,29.37
2018-02-20T04:43:32.135Z,28.95
2018-02-20T04:45:59.741Z,30.45
2018-02-20T04:48:27.318Z,29.20
2018-02-20T04:50:54.890Z,26.05
2018-02-20T04:53:22.420Z,28.12
2018-02-20T04:55:50.031Z,27.62
2018-02-20T04:58:17.616Z,28.70
2018-02-20T05:00:45.202Z,27.02
2018-02-20T05:03:12.879Z,28.90
2018-02-20T05:05:41.558Z,30.08
2018-02-20T05:08:09.154Z,29.55
2018-02-20T05:10:36.727Z,31.80
2018-02-20T05:13:04.307Z,31.17
2018-02-20T05:15:31.923Z,30.40
2018-02-20T05:18:00.320Z,29.80
2018-02-20T05:20:28.644Z,27.70
2018-02-20T05:22:56.226Z,30.00
2018-02-20T05:25:23.827Z,30.62
2018-02-20T05:27:57.048Z,27.35
2018-02-20T05:30:24.641Z,27.85
2018-02-20T05:32:52.228Z,30.37
2018-02-20T05:35:19.800Z,31.05
2018-02-20T05:37:48.035Z,29.42
2018-02-20T05:40:15.628Z,28.95
2018-02-20T05:42:43.179Z,29.10
2018-02-20T05:45:10.788Z,29.20
2018-02-20T05:47:38.315Z,27.13
2018-02-20T05:50:06.470Z,29.12
2018-02-20T05:52:34.016Z,27.33
2018-02-20T05:55:01.589Z,28.98
2018-02-20T05:57:30.082Z,30.25
2018-02-20T05:59:58.493Z,28.15
2018-02-20T06:02:26.141Z,29.92
2018-02-20T06:04:53.705Z,29.73
2018-02-20T06:07:22.174Z,29.17
2018-02-20T06:09:50.523Z,27.37
2018-02-20T06:12:18.093Z,28.15
2018-02-20T06:14:46.430Z,31.35
2018-02-20T06:17:14.002Z,30.30
2018-02-20T06:19:41.570Z,29.33
2018-02-20T06:22:09.177Z,29.63
2018-02-20T06:24:36.723Z,29.58
2018-02-20T06:27:05.369Z,28.85
2018-02-20T06:29:33.158Z,27.67
2018-02-20T06:32:00.750Z,28.27
2018-02-20T06:34:28.299Z,30.02
2018-02-20T06:36:56.716Z,27.87
2018-02-20T06:39:24.348Z,32.13
2018-02-20T06:41:51.924Z,31.98
2018-02-20T06:44:20.215Z,30.90
2018-02-20T06:46:47.802Z,28.58
2018-02-20T06:49:15.368Z,31.10
2018-02-20T06:51:42.938Z,28.70
2018-02-20T06:54:10.561Z,31.83
2018-02-20T06:56:38.233Z,30.62
2018-02-20T06:59:05.816Z,30.30
2018-02-20T07:01:33.415Z,29.08
2018-02-20T07:04:01.948Z,29.40
2018-02-20T07:06:29.521Z,28.52
2018-02-20T07:08:58.041Z,27.08
2018-02-20T07:11:25.662Z,32.00
2018-02-20T07:13:53.265Z,30.45
2018-02-20T07:16:20.849Z,30.67
2018-02-20T07:18:48.968Z,29.83
2018-02-20T07:21:16.653Z,30.33
2018-02-20T07:23:44.248Z,33.75
2018-02-20T07:26:12.688Z,31.85
2018-02-20T07:28:40.395Z,32.55
2018-02-20T07:31:07.943Z,28.62
2018-02-20T07:33:35.520Z,30.58
2018-02-20T07:36:03.076Z,31.92
2018-02-20T07:38:30.695Z,30.48
2018-02-20T07:40:58.260Z,29.73
2018-02-20T07:43:25.785Z,30.48
2018-02-20T07:45:53.406Z,28.85
2018-02-20T07:48:21.004Z,29.12
2018-02-20T07:50:48.589Z,29.23
2018-02-20T07:53:17.147Z,29.67
2018-02-20T07:55:44.877Z,25.85
2018-02-20T07:58:13.156Z,29.80
2018-02-20T08:00:40.758Z,30.77
2018-02-20T08:03:08.351Z,29.45
2018-02-20T08:05:35.912Z,27.10
2018-02-20T08:08:03.490Z,28.80
2018-02-20T08:10:31.111Z,26.87
2018-02-20T08:12:59.472Z,27.60
2018-02-20T08:15:27.058Z,30.02
2018-02-20T08:17:54.644Z,26.65
2018-02-20T08:20:22.236Z,28.95
2018-02-20T08:22:49.820Z,28.62
2018-02-20T08:25:17.600Z,30.80
2018-02-20T08:27:45.217Z,30.75
2018-02-20T08:30:12.818Z,30.33
2018-02-20T08:32:40.431Z,30.85
2018-02-20T08:35:08.001Z,32.47
2018-02-20T08:37:35.563Z,30.62
2018-02-20T08:40:03.116Z,31.90
2018-02-20T08:42:30.705Z,31.65
2018-02-20T08:44:58.514Z,31.83
2018-02-20T08:47:26.174Z,30.65
2018-02-20T08:49:54.408Z,29.52
2018-02-20T08:52:21.997Z,29.30
2018-02-20T08:54:49.600Z,31.95
2018-02-20T08:57:17.308Z,28.80
2018-02-20T08:59:45.025Z,30.40
2018-02-20T09:02:12.634Z,30.27
2018-02-20T09:04:40.305Z,31.27
2018-02-20T09:07:08.682Z,30.98
2018-02-20T09:09:36.388Z,29.90
2018-02-20T09:12:04.031Z,30.70
2018-02-20T09:14:31.574Z,31.98
2018-02-20T09:16:59.155Z,30.52
2018-02-20T09:19:26.832Z,30.20
2018-02-20T09:21:54.401Z,29.98
2018-02-20T09:24:21.959Z,31.00
2018-02-20T09:26:49.561Z,30.05
2018-02-20T09:29:17.202Z,29.95
2018-02-20T09:31:44.792Z,30.75
2018-02-20T09:34:12.357Z,29.10
2018-02-20T09:36:41.337Z,29.58
2018-02-20T09:39:08.858Z,28.98
2018-02-20T09:41:36.452Z,31.42
2018-02-20T09:44:04.012Z,28.58
2018-02-20T09:46:31.584Z,32.30
2018-02-20T09:48:59.914Z,29.08
2018-02-20T09:51:27.531Z,30.62
2018-02-20T09:53:55.139Z,30.10
2018-02-20T09:56:22.760Z,28.75
2018-02-20T09:58:50.432Z,29.73
2018-02-20T10:01:18.099Z,29.35
2018-02-20T10:03:45.689Z,31.20
2018-02-20T10:06:13.284Z,30.02
2018-02-20T10:08:40.864Z,31.62
2018-02-20T10:11:08.430Z,31.85
2018-02-20T10:13:35.992Z,36.90
2018-02-20T10:16:03.650Z,33.63
2018-02-20T10:18:31.313Z,30.85
2018-02-20T10:20:58.982Z,30.05
2018-02-20T10:23:26.618Z,30.05
2018-02-20T10:25:54.227Z,30.20
2018-02-20T10:28:21.963Z,31.35
2018-02-20T10:30:49.519Z,29.90
2018-02-20T10:33:17.474Z,30.10
2018-02-20T10:35:45.188Z,31.67
2018-02-20T10:38:12.772Z,30.90
2018-02-20T10:40:40.477Z,28.92
2018-02-20T10:43:08.029Z,28.00
2018-02-20T10:45:35.577Z,28.90
2018-02-20T10:48:03.167Z,29.98
2018-02-20T10:50:30.715Z,28.27
2018-02-20T10:52:58.283Z,28.92
2018-02-20T10:55:25.846Z,31.33
2018-02-20T10:57:53.477Z,28.65
2018-02-20T11:00:21.052Z,28.08
2018-02-20T11:02:48.728Z,30.10
2018-02-20T11:05:16.247Z,32.10
2018-02-20T11:07:44.622Z,30.08
2018-02-20T11:10:12.230Z,28.05
2018-02-20T11:12:40.343Z,29.95
2018-02-20T11:15:07.909Z,27.52
2018-02-20T11:17:36.595Z,27.65
2018-02-20T11:20:05.073Z,26.20
2018-02-20T11:22:32.683Z,26.23
2018-02-20T11:25:00.299Z,26.35
2018-02-20T11:27:27.821Z,25.60
2018-02-20T11:30:01.322Z,27.92
2018-02-20T11:32:28.955Z,28.42
2018-02-20T11:34:56.602Z,27.48
2018-02-20T11:37:24.234Z,28.55
2018-02-20T11:39:52.546Z,28.85
2018-02-20T11:42:20.336Z,26.60
2018-02-20T11:44:47.880Z,31.92
2018-02-20T11:47:15.466Z,27.13
2018-02-20T11:49:43.060Z,27.00
2018-02-20T11:52:12.306Z,25.35
2018-02-20T11:54:39.940Z,26.55
2018-02-20T11:57:07.499Z,25.70
2018-02-20T11:59:35.293Z,24.73
2018-02-20T12:02:02.824Z,22.70
2018-02-20T12:04:30.467Z,21.23
2018-02-20T12:06:59.580Z,21.05
2018-02-20T12:09:27.235Z,22.40
2018-02-20T12:11:54.827Z,22.33
2018-02-20T12:14:22.479Z,21.12
2018-02-20T12:16:50.178Z,23.20
2018-02-20T12:19:17.753Z,25.20
2018-02-20T12:21:45.531Z,26.17
2018-02-20T12:24:14.096Z,21.10
2018-02-20T12:26:42.484Z,20.70
2018-02-20T12:29:10.112Z,21.50
2018-02-20T12:31:37.733Z,23.15
2018-02-20T12:34:05.387Z,21.77
2018-02-20T12:36:32.937Z,21.15
2018-02-20T12:39:00.505Z,24.17
2018-02-20T12:41:28.044Z,22.70
2018-02-20T12:43:55.647Z,23.67
2018-02-20T12:46:23.260Z,22.83
2018-02-20T12:48:51.733Z,23.27
2018-02-20T12:51:20.086Z,24.15
2018-02-20T12:53:48.679Z,23.15
2018-02-20T12:56:16.281Z,24.27
2018-02-20T12:58:43.988Z,23.77
2018-02-20T13:01:11.631Z,24.25
2018-02-20T13:03:39.199Z,24.77
2018-02-20T13:06:07.444Z,24.48
2018-02-20T13:08:35.330Z,24.63
2018-02-20T13:11:03.117Z,23.83
2018-02-20T13:13:30.779Z,23.87
2018-02-20T13:15:58.326Z,23.58
2018-02-20T13:18:25.929Z,24.23
2018-02-20T13:20:53.539Z,23.67
2018-02-20T13:23:21.146Z,24.05
2018-02-20T13:25:48.770Z,23.08
2018-02-20T13:28:16.328Z,22.35
2018-02-20T13:30:43.898Z,22.95
2018-02-20T13:33:11.416Z,23.58
2018-02-20T13:35:39.733Z,22.35
2018-02-20T13:38:07.325Z,22.33
2018-02-20T13:40:34.870Z,21.48
2018-02-20T13:43:02.431Z,25.02
2018-02-20T13:45:29.965Z,19.02
2018-02-20T13:47:57.546Z,19.20
2018-02-20T13:50:25.145Z,18.48
2018-02-20T13:52:53.439Z,19.17
2018-02-20T13:55:21.082Z,20.25
2018-02-20T13:57:48.617Z,18.87
2018-02-20T14:00:16.210Z,21.30
2018-02-20T14:02:44.520Z,22.40
2018-02-20T14:05:12.122Z,19.95
2018-02-20T14:07:39.773Z,21.40
2018-02-20T14:10:07.370Z,20.50
2018-02-20T14:12:35.677Z,21.02
2018-02-20T14:15:03.218Z,22.42
2018-02-20T14:17:30.777Z,20.02
2018-02-20T14:19:59.135Z,21.37
2018-02-20T14:25:01.906Z,24.27
2018-02-20T14:27:29.492Z,20.00
2018-02-20T14:29:57.818Z,21.20
2018-02-20T14:32:25.537Z,22.73
2018-02-20T14:34:53.192Z,19.30
2018-02-20T14:37:20.747Z,19.48
2018-02-20T14:39:48.339Z,19.87
2018-02-20T14:42:15.883Z,21.40
2018-02-20T14:44:44.210Z,22.87
2018-02-20T14:47:11.752Z,20.75
2018-02-20T14:49:39.297Z,18.70
2018-02-20T14:52:06.835Z,22.40
2018-02-20T14:54:34.446Z,21.08
2018-02-20T14:57:03.168Z,23.75
2018-02-20T14:59:30.803Z,24.30
2018-02-20T15:01:58.454Z,21.17
2018-02-20T15:04:25.982Z,20.25
2018-02-20T15:06:54.530Z,22.67
2018-02-20T15:09:22.083Z,20.48
2018-02-20T15:11:49.815Z,20.30
2018-02-20T15:14:17.454Z,20.65
2018-02-20T15:16:45.707Z,21.55
2018-02-20T15:19:14.065Z,22.95
2018-02-20T15:21:41.596Z,22.00
2018-02-20T15:24:09.156Z,20.23
2018-02-20T15:26:36.764Z,21.60
2018-02-20T15:29:05.123Z,22.48
2018-02-20T15:31:32.730Z,21.85
2018-02-20T15:34:00.268Z,22.62
2018-02-20T15:36:28.616Z,22.30
2018-02-20T15:38:58.651Z,21.73
2018-02-20T15:41:26.981Z,21.58
2018-02-20T15:43:54.689Z,22.40
2018-02-20T15:46:23.030Z,21.83
2018-02-20T15:48:51.407Z,20.20
2018-02-20T15:51:20.272Z,20.52
2018-02-20T15:53:47.842Z,22.17
2018-02-20T15:56:15.407Z,20.90
2018-02-20T15:58:42.964Z,22.05
2018-02-20T16:01:11.225Z,21.75
2018-02-20T16:03:40.936Z,22.52
2018-02-20T16:06:09.375Z,24.17
2018-02-20T16:08:37.683Z,22.55
2018-02-20T16:11:05.369Z,22.23
2018-02-20T16:13:35.683Z,21.42
2018-02-20T16:16:15.117Z,21.60
2018-02-20T16:18:43.441Z,25.00
2018-02-20T16:21:11.121Z,23.25
2018-02-20T16:23:39.539Z,24.37
2018-02-20T16:26:07.146Z,25.12
2018-02-20T16:28:34.835Z,26.30
2018-02-20T16:31:02.866Z,25.25
2018-02-20T16:33:30.429Z,28.80
2018-02-20T16:35:57.973Z,27.60
2018-02-20T16:38:25.489Z,26.33
2018-02-20T16:40:54.082Z,27.50
2018-02-20T16:43:23.619Z,29.92
2018-02-20T16:45:51.210Z,28.05
2018-02-20T16:48:18.783Z,27.92
2018-02-20T16:50:46.489Z,27.33
2018-02-20T16:53:15.698Z,28.52
2018-02-20T16:55:43.221Z,29.27
2018-02-20T16:58:11.521Z,30.83
2018-02-20T17:00:39.955Z,29.87
2018-02-20T17:03:08.160Z,28.00
2018-02-20T17:05:35.873Z,29.65
2018-02-20T17:08:04.346Z,28.92
2018-02-20T17:10:32.659Z,28.58
2018-02-20T17:13:00.290Z,29.63
2018-02-20T17:15:28.674Z,32.13
2018-02-20T17:17:57.138Z,28.95
2018-02-20T17:20:25.562Z,31.20
2018-02-20T17:22:53.221Z,22.60
2018-02-20T17:25:20.877Z,28.00
2018-02-20T17:27:48.465Z,28.40
2018-02-20T17:30:16.098Z,31.05
2018-02-20T17:32:43.713Z,31.10
2018-02-20T17:35:11.413Z,32.63
2018-02-20T17:37:38.990Z,30.40
2018-02-20T17:40:06.879Z,31.40
2018-02-20T17:42:34.590Z,32.35
2018-02-20T17:45:02.953Z,32.45
2018-02-20T17:47:30.735Z,33.75
2018-02-20T17:49:58.383Z,31.10
2018-02-20T17:52:26.468Z,32.10
2018-02-20T17:54:54.830Z,35.38
2018-02-20T17:57:22.432Z,35.50
2018-02-20T17:59:50.089Z,31.92
2018-02-20T18:02:17.630Z,33.00
2018-02-20T18:04:45.259Z,34.13
2018-02-20T18:07:12.852Z,31.73
2018-02-20T18:09:41.250Z,33.08
2018-02-20T18:12:08.860Z,32.90
2018-02-20T18:14:36.500Z,34.28
2018-02-20T18:17:04.131Z,34.95
2018-02-20T18:19:31.745Z,32.35
2018-02-20T18:21:59.318Z,35.63
2018-02-20T18:24:26.914Z,34.53
2018-02-20T18:26:54.768Z,34.03
2018-02-20T18:29:22.336Z,32.10
2018-02-20T18:31:49.948Z,35.92
2018-02-20T18:34:17.535Z,35.33
2018-02-20T18:36:45.870Z,33.72
2018-02-20T18:39:13.468Z,33.47
2018-02-20T18:41:41.825Z,34.83
2018-02-20T18:44:09.378Z,31.37
2018-02-20T18:46:36.968Z,33.67
2018-02-20T18:49:04.556Z,36.63
2018-02-20T18:51:32.175Z,33.42
2018-02-20T18:53:59.850Z,32.85
2018-02-20T18:56:27.597Z,34.40
2018-02-20T18:58:55.440Z,33.35
2018-02-20T19:01:24.692Z,35.63
2018-02-20T19:03:53.088Z,36.85
2018-02-20T19:06:20.667Z,34.53
2018-02-20T19:08:48.221Z,32.67
2018-02-20T19:11:16.572Z,33.78
2018-02-20T19:13:44.123Z,34.88
2018-02-20T19:16:11.686Z,36.88
2018-02-20T19:18:39.263Z,37.03
2018-02-20T19:21:06.847Z,37.58
2018-02-20T19:23:34.432Z,34.22
2018-02-20T19:26:01.978Z,37.42
2018-02-20T19:28:29.536Z,35.22
2018-02-20T19:30:57.117Z,33.80
2018-02-20T19:33:25.529Z,37.53
2018-02-20T19:35:53.103Z,38.10
2018-02-20T19:38:20.674Z,38.25
2018-02-20T19:40:48.276Z,38.50
2018-02-20T19:43:15.814Z,37.28
2018-02-20T19:45:44.254Z,37.17
2018-02-20T19:48:12.636Z,36.83
2018-02-20T19:50:40.232Z,38.45
2018-02-20T19:53:07.751Z,38.50
2018-02-20T19:55:35.294Z,36.35
2018-02-20T19:58:04.436Z,39.00
2018-02-20T20:00:32.022Z,37.53
2018-02-20T20:02:59.631Z,34.30
2018-02-20T20:05:27.191Z,37.45
2018-02-20T20:07:55.589Z,38.85
2018-02-20T20:10:23.901Z,35.00
2018-02-20T20:12:51.548Z,35.67
2018-02-20T20:15:19.081Z,36.78
2018-02-20T20:17:47.420Z,38.65
2018-02-20T20:20:14.989Z,37.67
2018-02-20T20:22:42.609Z,37.25
2018-02-20T20:25:10.288Z,36.47
2018-02-20T20:27:37.849Z,35.80
2018-02-20T20:30:06.384Z,34.03
2018-02-20T20:32:33.931Z,38.17
2018-02-20T20:35:01.490Z,39.83
2018-02-20T20:37:29.050Z,37.53
2018-02-20T20:39:56.652Z,38.15
2018-02-20T20:42:24.231Z,38.47
2018-02-20T20:44:51.807Z,38.83
2018-02-20T20:47:22.050Z,38.85
2018-02-20T20:49:50.632Z,38.30
2018-02-20T20:52:19.058Z,38.58
2018-02-20T20:54:47.613Z,40.00
2018-02-20T20:57:15.147Z,39.38
2018-02-20T20:59:42.751Z,36.17
2018-02-20T21:02:11.107Z,37.08
2018-02-20T21:04:38.720Z,38.80
2018-02-20T21:07:07.148Z,39.85
2018-02-20T21:09:34.703Z,37.35
2018-02-20T21:12:02.352Z,35.42
2018-02-20T21:14:30.135Z,38.13
2018-02-20T21:16:57.678Z,32.38
2018-02-20T21:19:25.257Z,37.30
2018-02-20T21:21:52.864Z,40.17
2018-02-20T21:24:21.270Z,39.13
2018-02-20T21:26:48.849Z,40.28
2018-02-20T21:29:16.458Z,36.83
2018-02-20T21:31:44.789Z,39.22
2018-02-20T21:34:12.438Z,38.58
2018-02-20T21:36:40.023Z,39.97
2018-02-20T21:39:08.466Z,39.70
2018-02-20T21:41:36.019Z,38.55
2018-02-20T21:44:03.640Z,40.53
2018-02-20T21:46:31.342Z,38.17
2018-02-20T21:48:58.954Z,37.70
2018-02-20T21:51:26.570Z,39.40
2018-02-20T21:53:55.200Z,38.92
2018-02-20T21:56:23.604Z,38.80
2018-02-20T21:58:51.210Z,38.25
2018-02-20T22:01:18.777Z,40.33
2018-02-20T22:03:46.385Z,40.28
2018-02-20T22:06:14.950Z,40.63
2018-02-20T22:08:42.541Z,40.33
2018-02-20T22:11:10.148Z,39.03
2018-02-20T22:13:38.039Z,39.53
2018-02-20T22:16:05.650Z,39.53
2018-02-20T22:18:33.228Z,40.72
2018-02-20T22:21:00.786Z,41.15
2018-02-20T22:23:28.314Z,40.47
2018-02-20T22:25:55.934Z,40.22
2018-02-20T22:28:24.246Z,38.67
2018-02-20T22:30:51.874Z,40.63
2018-02-20T22:33:20.252Z,38.25
2018-02-20T22:35:48.601Z,42.08
2018-02-20T22:38:16.163Z,38.28
2018-02-20T22:40:43.751Z,40.78
2018-02-20T22:43:11.388Z,38.25
2018-02-20T22:45:39.007Z,39.10
2018-02-20T22:48:06.625Z,37.58
2018-02-20T22:50:35.003Z,37.85
2018-02-20T22:53:03.340Z,42.78
2018-02-20T22:55:30.921Z,40.60
2018-02-20T22:58:00.352Z,38.05
2018-02-20T23:00:27.924Z,40.78
2018-02-20T23:02:57.305Z,42.05
2018-02-20T23:05:24.968Z,38.25
2018-02-20T23:07:53.170Z,38.83
2018-02-20T23:10:20.911Z,39.25
2018-02-20T23:12:49.403Z,42.13
2018-02-20T23:15:16.965Z,40.85
2018-02-20T23:17:45.225Z,39.95
2018-02-20T23:20:13.080Z,41.50
2018-02-20T23:22:41.398Z,34.53
2018-02-20T23:25:09.774Z,42.35
2018-02-20T23:27:37.807Z,41.50
2018-02-20T23:30:05.389Z,44.70
2018-02-20T23:32:32.996Z,42.42
2018-02-20T23:35:00.544Z,43.80
2018-02-20T23:37:28.157Z,38.78
2018-02-20T23:39:55.720Z,41.63
2018-02-20T23:42:23.296Z,40.85
2018-02-20T23:44:50.893Z,42.83
2018-02-20T23:47:18.499Z,43.08
2018-02-20T23:49:46.654Z,40.45
2018-02-20T23:52:14.284Z,39.72
2018-02-20T23:54:41.893Z,42.95
2018-02-20T23:57:09.793Z,41.47
2018-02-20T23:59:38.182Z,45.92
